sensor_id;sensor_type;location;lat;lon;timestamp;pressure;altitude;pressure_sealevel;temperature;humidity
40920;BME280;26652;50.280;19.026;2023-03-20T00:01:30;98276.69;;;9.61;57.41
40920;BME280;26652;50.280;19.026;2023-03-20T00:03:36;98277.38;;;9.69;57.44
40920;BME280;26652;50.280;19.026;2023-03-20T00:05:50;98277.38;;;9.69;57.13
40920;BME280;26652;50.280;19.026;2023-03-20T00:08:05;98275.91;;;9.75;57.52
40920;BME280;26652;50.280;19.026;2023-03-20T00:10:20;98272.38;;;9.76;57.29
40920;BME280;26652;50.280;19.026;2023-03-20T00:12:29;98277.47;;;9.76;56.72
40920;BME280;26652;50.280;19.026;2023-03-20T00:14:40;98268.00;;;9.70;57.21
40920;BME280;26652;50.280;19.026;2023-03-20T00:16:52;98279.22;;;9.75;56.90
40920;BME280;26652;50.280;19.026;2023-03-20T00:19:23;98278.97;;;9.70;57.19
40920;BME280;26652;50.280;19.026;2023-03-20T00:21:29;98281.16;;;9.73;56.78
40920;BME280;26652;50.280;19.026;2023-03-20T00:23:41;98285.09;;;9.76;57.07
40920;BME280;26652;50.280;19.026;2023-03-20T00:25:52;98273.97;;;9.77;57.06
40920;BME280;26652;50.280;19.026;2023-03-20T00:28:27;98273.00;;;9.78;57.86
40920;BME280;26652;50.280;19.026;2023-03-20T00:30:45;98274.66;;;9.71;57.01
40920;BME280;26652;50.280;19.026;2023-03-20T00:33:07;98275.47;;;9.71;56.84
40920;BME280;26652;50.280;19.026;2023-03-20T00:35:19;98270.19;;;9.73;58.23
40920;BME280;26652;50.280;19.026;2023-03-20T00:37:29;98274.06;;;9.69;59.38
40920;BME280;26652;50.280;19.026;2023-03-20T00:39:37;98269.31;;;9.66;58.33
40920;BME280;26652;50.280;19.026;2023-03-20T00:42:01;98274.22;;;9.67;58.15
40920;BME280;26652;50.280;19.026;2023-03-20T00:46:39;98274.31;;;9.74;58.41
40920;BME280;26652;50.280;19.026;2023-03-20T00:48:47;98272.91;;;9.71;58.09
40920;BME280;26652;50.280;19.026;2023-03-20T00:51:01;98275.91;;;9.75;59.10
40920;BME280;26652;50.280;19.026;2023-03-20T00:53:12;98265.63;;;9.68;57.75
40920;BME280;26652;50.280;19.026;2023-03-20T00:55:42;98262.94;;;9.70;57.78
40920;BME280;26652;50.280;19.026;2023-03-20T00:58:01;98263.72;;;9.70;58.12
40920;BME280;26652;50.280;19.026;2023-03-20T01:02:31;98259.69;;;9.76;59.10
40920;BME280;26652;50.280;19.026;2023-03-20T01:04:43;98251.28;;;9.75;58.04
40920;BME280;26652;50.280;19.026;2023-03-20T01:06:51;98257.56;;;9.79;58.24
40920;BME280;26652;50.280;19.026;2023-03-20T01:09:09;98261.59;;;9.74;57.96
40920;BME280;26652;50.280;19.026;2023-03-20T01:11:23;98250.84;;;9.72;58.21
40920;BME280;26652;50.280;19.026;2023-03-20T01:13:38;98249.50;;;9.76;57.18
40920;BME280;26652;50.280;19.026;2023-03-20T01:15:46;98249.00;;;9.80;57.26
40920;BME280;26652;50.280;19.026;2023-03-20T01:18:00;98249.16;;;9.79;58.36
40920;BME280;26652;50.280;19.026;2023-03-20T01:20:24;98246.97;;;9.76;58.38
40920;BME280;26652;50.280;19.026;2023-03-20T01:22:35;98250.38;;;9.83;57.46
40920;BME280;26652;50.280;19.026;2023-03-20T01:24:44;98246.44;;;9.80;59.16
40920;BME280;26652;50.280;19.026;2023-03-20T01:26:58;98245.47;;;9.81;59.47
40920;BME280;26652;50.280;19.026;2023-03-20T01:29:33;98246.53;;;9.72;59.20
40920;BME280;26652;50.280;19.026;2023-03-20T01:31:50;98259.78;;;9.68;61.40
40920;BME280;26652;50.280;19.026;2023-03-20T01:33:57;98253.47;;;9.64;62.14
40920;BME280;26652;50.280;19.026;2023-03-20T01:36:23;98245.84;;;9.49;63.73
40920;BME280;26652;50.280;19.026;2023-03-20T01:38:32;98244.97;;;9.57;62.49
40920;BME280;26652;50.280;19.026;2023-03-20T01:43:13;98252.94;;;9.54;63.70
40920;BME280;26652;50.280;19.026;2023-03-20T01:45:34;98253.56;;;9.56;63.14
40920;BME280;26652;50.280;19.026;2023-03-20T01:47:39;98256.78;;;9.49;61.01
40920;BME280;26652;50.280;19.026;2023-03-20T01:50:21;98256.97;;;9.48;60.02
40920;BME280;26652;50.280;19.026;2023-03-20T01:52:28;98258.19;;;9.52;63.20
40920;BME280;26652;50.280;19.026;2023-03-20T01:54:46;98261.09;;;9.49;64.44
40920;BME280;26652;50.280;19.026;2023-03-20T01:57:14;98261.88;;;9.49;64.29
40920;BME280;26652;50.280;19.026;2023-03-20T01:59:41;98262.66;;;9.50;62.29
40920;BME280;26652;50.280;19.026;2023-03-20T02:01:49;98259.50;;;9.48;64.56
40920;BME280;26652;50.280;19.026;2023-03-20T02:04:12;98260.28;;;9.48;64.54
40920;BME280;26652;50.280;19.026;2023-03-20T02:06:21;98263.09;;;9.54;61.12
40920;BME280;26652;50.280;19.026;2023-03-20T02:08:36;98263.81;;;9.62;61.69
40920;BME280;26652;50.280;19.026;2023-03-20T02:10:47;98267.41;;;9.68;64.09
40920;BME280;26652;50.280;19.026;2023-03-20T02:13:00;98262.13;;;9.55;65.97
40920;BME280;26652;50.280;19.026;2023-03-20T02:15:07;98263.53;;;9.57;63.03
40920;BME280;26652;50.280;19.026;2023-03-20T02:17:20;98266.16;;;9.64;63.45
40920;BME280;26652;50.280;19.026;2023-03-20T02:19:52;98270.91;;;9.67;62.49
40920;BME280;26652;50.280;19.026;2023-03-20T02:25:09;98265.03;;;9.51;62.35
40920;BME280;26652;50.280;19.026;2023-03-20T02:27:38;98273.69;;;9.57;63.66
40920;BME280;26652;50.280;19.026;2023-03-20T02:30:11;98267.75;;;9.50;65.51
40920;BME280;26652;50.280;19.026;2023-03-20T02:35:22;98272.03;;;9.49;64.05
40920;BME280;26652;50.280;19.026;2023-03-20T02:38:07;98263.34;;;9.44;63.32
40920;BME280;26652;50.280;19.026;2023-03-20T02:40:46;98264.22;;;9.51;64.85
40920;BME280;26652;50.280;19.026;2023-03-20T02:43:14;98264.94;;;9.45;65.94
40920;BME280;26652;50.280;19.026;2023-03-20T02:45:43;98265.56;;;9.32;67.17
40920;BME280;26652;50.280;19.026;2023-03-20T02:48:17;98265.00;;;9.37;65.55
40920;BME280;26652;50.280;19.026;2023-03-20T02:50:42;98260.03;;;9.29;66.38
40920;BME280;26652;50.280;19.026;2023-03-20T02:53:42;98259.59;;;9.25;67.46
40920;BME280;26652;50.280;19.026;2023-03-20T02:56:02;98256.88;;;9.27;65.55
40920;BME280;26652;50.280;19.026;2023-03-20T02:58:24;98246.56;;;9.28;66.29
40920;BME280;26652;50.280;19.026;2023-03-20T03:00:39;98255.37;;;9.17;67.55
40920;BME280;26652;50.280;19.026;2023-03-20T03:03:12;98250.66;;;9.14;67.06
40920;BME280;26652;50.280;19.026;2023-03-20T03:05:27;98249.56;;;9.09;68.61
40920;BME280;26652;50.280;19.026;2023-03-20T03:07:40;98241.78;;;9.10;65.91
40920;BME280;26652;50.280;19.026;2023-03-20T03:10:27;98237.06;;;9.07;65.51
40920;BME280;26652;50.280;19.026;2023-03-20T03:12:44;98247.56;;;9.04;66.12
40920;BME280;26652;50.280;19.026;2023-03-20T03:14:54;98243.50;;;8.95;67.07
40920;BME280;26652;50.280;19.026;2023-03-20T03:17:11;98246.16;;;9.02;64.94
40920;BME280;26652;50.280;19.026;2023-03-20T03:19:20;98245.75;;;9.13;63.31
40920;BME280;26652;50.280;19.026;2023-03-20T03:21:34;98252.84;;;9.17;65.52
40920;BME280;26652;50.280;19.026;2023-03-20T03:23:47;98250.19;;;9.11;67.78
40920;BME280;26652;50.280;19.026;2023-03-20T03:26:03;98245.38;;;9.01;66.97
40920;BME280;26652;50.280;19.026;2023-03-20T03:30:47;98252.16;;;9.24;65.68
40920;BME280;26652;50.280;19.026;2023-03-20T03:35:33;98248.91;;;9.30;62.92
40920;BME280;26652;50.280;19.026;2023-03-20T03:37:57;98251.34;;;9.38;62.34
40920;BME280;26652;50.280;19.026;2023-03-20T03:42:55;98254.06;;;9.51;61.22
40920;BME280;26652;50.280;19.026;2023-03-20T03:45:24;98248.03;;;9.52;60.89
40920;BME280;26652;50.280;19.026;2023-03-20T03:47:45;98244.53;;;9.53;60.46
40920;BME280;26652;50.280;19.026;2023-03-20T03:50:09;98251.78;;;9.56;60.44
40920;BME280;26652;50.280;19.026;2023-03-20T03:52:20;98252.50;;;9.50;60.90
40920;BME280;26652;50.280;19.026;2023-03-20T03:54:42;98249.00;;;9.51;59.95
40920;BME280;26652;50.280;19.026;2023-03-20T03:56:50;98249.09;;;9.58;60.39
40920;BME280;26652;50.280;19.026;2023-03-20T03:59:07;98251.34;;;9.52;60.59
40920;BME280;26652;50.280;19.026;2023-03-20T04:01:17;98252.94;;;9.39;59.89
40920;BME280;26652;50.280;19.026;2023-03-20T04:03:35;98252.41;;;9.43;59.99
40920;BME280;26652;50.280;19.026;2023-03-20T04:05:43;98258.63;;;9.41;59.92
40920;BME280;26652;50.280;19.026;2023-03-20T04:07:57;98256.97;;;9.48;60.38
40920;BME280;26652;50.280;19.026;2023-03-20T04:10:06;98258.97;;;9.52;60.14
40920;BME280;26652;50.280;19.026;2023-03-20T04:12:39;98250.84;;;9.57;59.86
40920;BME280;26652;50.280;19.026;2023-03-20T04:14:46;98257.22;;;9.68;59.80
40920;BME280;26652;50.280;19.026;2023-03-20T04:16:58;98252.59;;;9.71;59.53
40920;BME280;26652;50.280;19.026;2023-03-20T04:19:08;98259.06;;;9.74;59.32
40920;BME280;26652;50.280;19.026;2023-03-20T04:21:20;98248.13;;;9.73;59.13
40920;BME280;26652;50.280;19.026;2023-03-20T04:23:27;98251.62;;;9.72;58.97
40920;BME280;26652;50.280;19.026;2023-03-20T04:25:46;98252.50;;;9.79;59.18
40920;BME280;26652;50.280;19.026;2023-03-20T04:28:00;98246.88;;;9.84;59.42
40920;BME280;26652;50.280;19.026;2023-03-20T04:30:15;98254.41;;;9.77;59.52
40920;BME280;26652;50.280;19.026;2023-03-20T04:32:24;98252.94;;;9.83;59.39
40920;BME280;26652;50.280;19.026;2023-03-20T04:34:42;98250.91;;;9.78;59.72
40920;BME280;26652;50.280;19.026;2023-03-20T04:36:53;98261.19;;;9.70;59.26
40920;BME280;26652;50.280;19.026;2023-03-20T04:39:06;98259.59;;;9.69;60.46
40920;BME280;26652;50.280;19.026;2023-03-20T04:41:15;98259.41;;;9.71;60.64
40920;BME280;26652;50.280;19.026;2023-03-20T04:43:29;98259.69;;;9.61;59.67
40920;BME280;26652;50.280;19.026;2023-03-20T04:45:48;98263.19;;;9.60;60.35
40920;BME280;26652;50.280;19.026;2023-03-20T04:48:08;98266.44;;;9.69;60.51
40920;BME280;26652;50.280;19.026;2023-03-20T04:50:19;98272.81;;;9.65;60.05
40920;BME280;26652;50.280;19.026;2023-03-20T04:52:37;98269.16;;;9.67;59.82
40920;BME280;26652;50.280;19.026;2023-03-20T04:54:51;98268.53;;;9.65;59.98
40920;BME280;26652;50.280;19.026;2023-03-20T04:57:06;98263.00;;;9.62;60.10
40920;BME280;26652;50.280;19.026;2023-03-20T04:59:24;98272.56;;;9.60;60.83
40920;BME280;26652;50.280;19.026;2023-03-20T05:01:38;98274.50;;;9.58;60.15
40920;BME280;26652;50.280;19.026;2023-03-20T05:03:57;98269.13;;;9.52;60.59
40920;BME280;26652;50.280;19.026;2023-03-20T05:06:11;98279.84;;;9.63;60.04
40920;BME280;26652;50.280;19.026;2023-03-20T05:08:30;98276.94;;;9.66;59.72
40920;BME280;26652;50.280;19.026;2023-03-20T05:10:47;98271.78;;;9.59;60.19
40920;BME280;26652;50.280;19.026;2023-03-20T05:13:06;98285.25;;;9.60;60.07
40920;BME280;26652;50.280;19.026;2023-03-20T05:15:26;98283.06;;;9.57;60.21
40920;BME280;26652;50.280;19.026;2023-03-20T05:17:39;98282.91;;;9.58;60.71
40920;BME280;26652;50.280;19.026;2023-03-20T05:19:51;98282.00;;;9.51;60.85
40920;BME280;26652;50.280;19.026;2023-03-20T05:22:16;98284.81;;;9.56;60.76
40920;BME280;26652;50.280;19.026;2023-03-20T05:24:29;98276.06;;;9.59;60.87
40920;BME280;26652;50.280;19.026;2023-03-20T05:26:37;98280.72;;;9.55;60.54
40920;BME280;26652;50.280;19.026;2023-03-20T05:28:49;98282.09;;;9.58;61.33
40920;BME280;26652;50.280;19.026;2023-03-20T05:30:58;98278.34;;;9.68;61.06
40920;BME280;26652;50.280;19.026;2023-03-20T05:33:23;98277.03;;;9.72;60.54
40920;BME280;26652;50.280;19.026;2023-03-20T05:35:36;98282.72;;;9.74;60.87
40920;BME280;26652;50.280;19.026;2023-03-20T05:37:54;98277.38;;;9.69;60.69
40920;BME280;26652;50.280;19.026;2023-03-20T05:40:02;98283.78;;;9.80;60.20
40920;BME280;26652;50.280;19.026;2023-03-20T05:42:14;98285.44;;;9.88;60.33
40920;BME280;26652;50.280;19.026;2023-03-20T05:44:33;98281.59;;;9.92;59.90
40920;BME280;26652;50.280;19.026;2023-03-20T05:46:51;98282.62;;;9.82;60.09
40920;BME280;26652;50.280;19.026;2023-03-20T05:49:05;98286.94;;;9.97;60.25
40920;BME280;26652;50.280;19.026;2023-03-20T05:51:17;98283.06;;;10.01;60.25
40920;BME280;26652;50.280;19.026;2023-03-20T05:53:36;98283.66;;;10.18;59.65
40920;BME280;26652;50.280;19.026;2023-03-20T05:55:54;98289.38;;;10.20;59.31
40920;BME280;26652;50.280;19.026;2023-03-20T05:58:06;98283.47;;;10.34;59.35
40920;BME280;26652;50.280;19.026;2023-03-20T06:00:23;98287.47;;;10.43;59.43
40920;BME280;26652;50.280;19.026;2023-03-20T06:02:29;98282.44;;;10.49;59.70
40920;BME280;26652;50.280;19.026;2023-03-20T06:04:41;98278.53;;;10.68;60.65
40920;BME280;26652;50.280;19.026;2023-03-20T06:06:55;98266.22;;;10.72;58.64
40920;BME280;26652;50.280;19.026;2023-03-20T06:09:07;98274.75;;;10.86;59.24
40920;BME280;26652;50.280;19.026;2023-03-20T06:11:16;98281.00;;;11.04;58.61
40920;BME280;26652;50.280;19.026;2023-03-20T06:13:30;98280.22;;;11.04;58.40
40920;BME280;26652;50.280;19.026;2023-03-20T06:15:40;98286.94;;;10.90;59.27
40920;BME280;26652;50.280;19.026;2023-03-20T06:17:55;98292.03;;;10.90;59.78
40920;BME280;26652;50.280;19.026;2023-03-20T06:20:03;98292.78;;;10.84;60.04
40920;BME280;26652;50.280;19.026;2023-03-20T06:22:15;98298.41;;;10.79;60.77
40920;BME280;26652;50.280;19.026;2023-03-20T06:24:24;98300.94;;;10.79;60.97
40920;BME280;26652;50.280;19.026;2023-03-20T06:26:42;98302.16;;;10.84;60.69
40920;BME280;26652;50.280;19.026;2023-03-20T06:28:50;98305.88;;;10.81;60.76
40920;BME280;26652;50.280;19.026;2023-03-20T06:31:03;98310.72;;;10.76;61.02
40920;BME280;26652;50.280;19.026;2023-03-20T06:33:12;98304.94;;;10.67;60.79
40920;BME280;26652;50.280;19.026;2023-03-20T06:35:28;98314.44;;;10.59;60.76
40920;BME280;26652;50.280;19.026;2023-03-20T06:37:40;98317.78;;;10.59;60.81
40920;BME280;26652;50.280;19.026;2023-03-20T06:40:03;98323.06;;;10.58;61.89
40920;BME280;26652;50.280;19.026;2023-03-20T06:42:08;98319.59;;;10.65;61.03
40920;BME280;26652;50.280;19.026;2023-03-20T06:44:18;98327.91;;;10.74;61.46
40920;BME280;26652;50.280;19.026;2023-03-20T06:46:24;98332.94;;;10.67;62.06
40920;BME280;26652;50.280;19.026;2023-03-20T06:48:39;98326.88;;;10.68;62.40
40920;BME280;26652;50.280;19.026;2023-03-20T06:50:47;98327.91;;;10.74;62.12
40920;BME280;26652;50.280;19.026;2023-03-20T06:52:58;98333.16;;;10.87;62.13
40920;BME280;26652;50.280;19.026;2023-03-20T06:55:07;98334.59;;;10.96;61.97
40920;BME280;26652;50.280;19.026;2023-03-20T06:57:16;98341.22;;;10.91;61.90
40920;BME280;26652;50.280;19.026;2023-03-20T06:59:21;98345.09;;;10.87;62.89
40920;BME280;26652;50.280;19.026;2023-03-20T07:01:30;98341.75;;;11.07;62.27
40920;BME280;26652;50.280;19.026;2023-03-20T07:03:39;98344.12;;;11.09;61.73
40920;BME280;26652;50.280;19.026;2023-03-20T07:05:54;98346.66;;;11.09;62.66
40920;BME280;26652;50.280;19.026;2023-03-20T07:08:09;98331.75;;;10.85;63.61
40920;BME280;26652;50.280;19.026;2023-03-20T07:10:27;98342.19;;;11.11;63.16
40920;BME280;26652;50.280;19.026;2023-03-20T07:12:36;98346.78;;;11.22;62.59
40920;BME280;26652;50.280;19.026;2023-03-20T07:14:53;98353.59;;;11.15;62.92
40920;BME280;26652;50.280;19.026;2023-03-20T07:16:59;98354.00;;;11.19;64.52
40920;BME280;26652;50.280;19.026;2023-03-20T07:19:09;98351.88;;;11.22;65.21
40920;BME280;26652;50.280;19.026;2023-03-20T07:21:21;98353.22;;;11.18;65.20
40920;BME280;26652;50.280;19.026;2023-03-20T07:23:32;98355.47;;;11.06;64.96
40920;BME280;26652;50.280;19.026;2023-03-20T07:25:40;98361.41;;;10.92;65.57
40920;BME280;26652;50.280;19.026;2023-03-20T07:28:01;98359.03;;;11.12;65.63
40920;BME280;26652;50.280;19.026;2023-03-20T07:30:10;98361.16;;;11.30;64.60
40920;BME280;26652;50.280;19.026;2023-03-20T07:32:23;98364.84;;;11.27;64.98
40920;BME280;26652;50.280;19.026;2023-03-20T07:34:37;98362.72;;;11.31;64.92
40920;BME280;26652;50.280;19.026;2023-03-20T07:36:58;98358.12;;;11.20;65.02
40920;BME280;26652;50.280;19.026;2023-03-20T07:39:14;98359.34;;;11.02;65.71
40920;BME280;26652;50.280;19.026;2023-03-20T07:41:28;98358.44;;;11.10;66.00
40920;BME280;26652;50.280;19.026;2023-03-20T07:43:37;98354.91;;;11.11;66.90
40920;BME280;26652;50.280;19.026;2023-03-20T07:45:54;98359.09;;;11.19;66.51
40920;BME280;26652;50.280;19.026;2023-03-20T07:48:13;98363.28;;;11.26;67.24
40920;BME280;26652;50.280;19.026;2023-03-20T07:50:24;98363.75;;;11.36;67.31
40920;BME280;26652;50.280;19.026;2023-03-20T07:52:36;98347.41;;;11.03;68.67
40920;BME280;26652;50.280;19.026;2023-03-20T07:54:48;98369.78;;;11.29;68.65
40920;BME280;26652;50.280;19.026;2023-03-20T07:57:03;98367.59;;;11.26;68.61
40920;BME280;26652;50.280;19.026;2023-03-20T07:59:18;98371.91;;;11.25;69.21
40920;BME280;26652;50.280;19.026;2023-03-20T08:01:26;98361.87;;;11.24;70.65
40920;BME280;26652;50.280;19.026;2023-03-20T08:03:53;98360.31;;;11.23;69.63
40920;BME280;26652;50.280;19.026;2023-03-20T08:05:59;98371.63;;;11.41;69.93
40920;BME280;26652;50.280;19.026;2023-03-20T08:08:27;98357.03;;;11.07;72.16
40920;BME280;26652;50.280;19.026;2023-03-20T08:10:41;98359.88;;;11.19;72.46
40920;BME280;26652;50.280;19.026;2023-03-20T08:13:02;98358.44;;;11.10;73.76
40920;BME280;26652;50.280;19.026;2023-03-20T08:15:15;98357.41;;;11.26;74.56
40920;BME280;26652;50.280;19.026;2023-03-20T08:17:27;98362.37;;;11.34;74.83
40920;BME280;26652;50.280;19.026;2023-03-20T08:19:53;98361.28;;;11.22;75.08
40920;BME280;26652;50.280;19.026;2023-03-20T08:22:05;98353.41;;;11.44;76.74
40920;BME280;26652;50.280;19.026;2023-03-20T08:24:14;98352.81;;;11.98;74.42
40920;BME280;26652;50.280;19.026;2023-03-20T08:26:33;98362.75;;;12.21;72.65
40920;BME280;26652;50.280;19.026;2023-03-20T08:28:39;98369.53;;;12.07;72.61
40920;BME280;26652;50.280;19.026;2023-03-20T08:30:52;98367.03;;;12.14;73.62
40920;BME280;26652;50.280;19.026;2023-03-20T08:33:07;98367.25;;;11.85;73.56
40920;BME280;26652;50.280;19.026;2023-03-20T08:35:21;98371.34;;;11.58;75.24
40920;BME280;26652;50.280;19.026;2023-03-20T08:37:40;98372.94;;;11.87;75.32
40920;BME280;26652;50.280;19.026;2023-03-20T08:39:54;98371.69;;;12.04;74.15
40920;BME280;26652;50.280;19.026;2023-03-20T08:42:07;98357.66;;;11.87;73.86
40920;BME280;26652;50.280;19.026;2023-03-20T08:44:19;98366.34;;;11.99;73.42
40920;BME280;26652;50.280;19.026;2023-03-20T08:46:29;98368.66;;;12.28;73.50
40920;BME280;26652;50.280;19.026;2023-03-20T08:48:50;98364.56;;;12.34;72.18
40920;BME280;26652;50.280;19.026;2023-03-20T08:50:59;98364.53;;;12.27;72.10
40920;BME280;26652;50.280;19.026;2023-03-20T08:53:12;98361.72;;;12.16;72.75
40920;BME280;26652;50.280;19.026;2023-03-20T08:55:37;98366.94;;;12.35;72.09
40920;BME280;26652;50.280;19.026;2023-03-20T08:57:49;98372.09;;;12.55;73.03
40920;BME280;26652;50.280;19.026;2023-03-20T08:59:59;98367.75;;;12.56;71.87
40920;BME280;26652;50.280;19.026;2023-03-20T09:02:17;98371.75;;;12.71;72.11
40920;BME280;26652;50.280;19.026;2023-03-20T09:04:26;98371.22;;;12.96;72.58
40920;BME280;26652;50.280;19.026;2023-03-20T09:06:41;98379.34;;;13.19;71.86
40920;BME280;26652;50.280;19.026;2023-03-20T09:08:48;98371.31;;;13.49;70.90
40920;BME280;26652;50.280;19.026;2023-03-20T09:11:06;98380.91;;;13.60;71.31
40920;BME280;26652;50.280;19.026;2023-03-20T09:13:21;98379.16;;;13.34;71.30
40920;BME280;26652;50.280;19.026;2023-03-20T09:15:36;98384.44;;;13.52;72.44
40920;BME280;26652;50.280;19.026;2023-03-20T09:17:46;98385.06;;;13.28;72.00
40920;BME280;26652;50.280;19.026;2023-03-20T09:19:57;98376.41;;;13.22;72.96
40920;BME280;26652;50.280;19.026;2023-03-20T09:22:03;98376.81;;;13.32;74.02
40920;BME280;26652;50.280;19.026;2023-03-20T09:24:18;98374.62;;;13.43;72.11
40920;BME280;26652;50.280;19.026;2023-03-20T09:26:30;98375.78;;;13.66;72.24
40920;BME280;26652;50.280;19.026;2023-03-20T09:28:42;98378.50;;;13.91;73.97
40920;BME280;26652;50.280;19.026;2023-03-20T09:30:55;98374.56;;;13.89;72.39
40920;BME280;26652;50.280;19.026;2023-03-20T09:33:09;98375.91;;;14.11;72.74
40920;BME280;26652;50.280;19.026;2023-03-20T09:35:20;98380.69;;;13.74;71.63
40920;BME280;26652;50.280;19.026;2023-03-20T09:37:44;98372.81;;;13.76;73.18
40920;BME280;26652;50.280;19.026;2023-03-20T09:39:57;98378.09;;;13.94;72.29
40920;BME280;26652;50.280;19.026;2023-03-20T09:45:10;98369.50;;;13.62;72.99
40920;BME280;26652;50.280;19.026;2023-03-20T09:47:39;98384.03;;;13.75;73.99
40920;BME280;26652;50.280;19.026;2023-03-20T09:54:40;98385.00;;;13.08;78.03
40920;BME280;26652;50.280;19.026;2023-03-20T09:56:53;98380.06;;;12.93;78.29
40920;BME280;26652;50.280;19.026;2023-03-20T09:59:01;98381.81;;;12.93;79.29
40920;BME280;26652;50.280;19.026;2023-03-20T10:01:15;98377.91;;;13.03;79.88
40920;BME280;26652;50.280;19.026;2023-03-20T10:03:54;98377.53;;;13.06;79.46
40920;BME280;26652;50.280;19.026;2023-03-20T10:06:12;98377.34;;;13.08;79.20
40920;BME280;26652;50.280;19.026;2023-03-20T10:08:24;98376.09;;;12.77;80.94
40920;BME280;26652;50.280;19.026;2023-03-20T10:10:51;98372.38;;;12.87;81.56
40920;BME280;26652;50.280;19.026;2023-03-20T10:13:19;98377.00;;;13.24;80.48
40920;BME280;26652;50.280;19.026;2023-03-20T10:16:34;98383.47;;;13.27;79.29
40920;BME280;26652;50.280;19.026;2023-03-20T10:18:27;98375.22;;;13.31;79.48
40920;BME280;26652;50.280;19.026;2023-03-20T10:21:22;98368.94;;;13.40;78.76
40920;BME280;26652;50.280;19.026;2023-03-20T10:23:56;98374.62;;;13.36;78.70
40920;BME280;26652;50.280;19.026;2023-03-20T10:26:11;98370.06;;;13.12;79.97
40920;BME280;26652;50.280;19.026;2023-03-20T10:28:42;98353.00;;;13.19;80.23
40920;BME280;26652;50.280;19.026;2023-03-20T10:35:12;98371.78;;;12.91;81.75
40920;BME280;26652;50.280;19.026;2023-03-20T10:42:32;98375.81;;;13.33;79.96
40920;BME280;26652;50.280;19.026;2023-03-20T10:44:45;98373.62;;;13.70;79.17
40920;BME280;26652;50.280;19.026;2023-03-20T10:47:04;98371.25;;;13.68;78.16
40920;BME280;26652;50.280;19.026;2023-03-20T10:50:05;98366.72;;;13.70;78.17
40920;BME280;26652;50.280;19.026;2023-03-20T10:52:02;98374.53;;;14.08;76.98
40920;BME280;26652;50.280;19.026;2023-03-20T10:54:31;98375.03;;;14.44;75.12
40920;BME280;26652;50.280;19.026;2023-03-20T10:56:45;98370.75;;;15.07;72.98
40920;BME280;26652;50.280;19.026;2023-03-20T10:59:21;98362.50;;;15.55;70.48
40920;BME280;26652;50.280;19.026;2023-03-20T11:01:31;98362.37;;;15.68;69.54
40920;BME280;26652;50.280;19.026;2023-03-20T11:03:38;98368.16;;;15.63;68.73
40920;BME280;26652;50.280;19.026;2023-03-20T11:05:53;98361.81;;;15.66;68.52
40920;BME280;26652;50.280;19.026;2023-03-20T11:08:22;98358.78;;;15.51;68.82
40920;BME280;26652;50.280;19.026;2023-03-20T11:10:32;98365.47;;;15.58;67.69
40920;BME280;26652;50.280;19.026;2023-03-20T11:12:45;98361.59;;;15.67;67.42
40920;BME280;26652;50.280;19.026;2023-03-20T11:14:59;98358.75;;;15.76;67.63
40920;BME280;26652;50.280;19.026;2023-03-20T11:17:11;98365.13;;;15.91;66.66
40920;BME280;26652;50.280;19.026;2023-03-20T11:19:22;98359.53;;;15.58;66.62
40920;BME280;26652;50.280;19.026;2023-03-20T11:21:31;98354.50;;;15.88;66.73
40920;BME280;26652;50.280;19.026;2023-03-20T11:23:43;98349.66;;;16.16;65.08
40920;BME280;26652;50.280;19.026;2023-03-20T11:26:11;98344.94;;;16.13;65.90
40920;BME280;26652;50.280;19.026;2023-03-20T11:28:45;98353.56;;;16.37;64.71
40920;BME280;26652;50.280;19.026;2023-03-20T11:30:58;98347.25;;;16.51;63.96
40920;BME280;26652;50.280;19.026;2023-03-20T11:33:08;98339.59;;;15.96;63.77
40920;BME280;26652;50.280;19.026;2023-03-20T11:35:45;98337.06;;;15.53;65.96
40920;BME280;26652;50.280;19.026;2023-03-20T11:38:16;98337.72;;;15.67;65.37
40920;BME280;26652;50.280;19.026;2023-03-20T11:40:30;98335.16;;;15.67;65.65
40920;BME280;26652;50.280;19.026;2023-03-20T11:42:57;98340.50;;;15.84;65.49
40920;BME280;26652;50.280;19.026;2023-03-20T11:45:16;98335.03;;;15.98;63.93
40920;BME280;26652;50.280;19.026;2023-03-20T11:47:27;98327.31;;;15.80;63.99
40920;BME280;26652;50.280;19.026;2023-03-20T11:49:43;98327.97;;;15.32;65.23
40920;BME280;26652;50.280;19.026;2023-03-20T11:52:10;98320.09;;;15.27;65.59
40920;BME280;26652;50.280;19.026;2023-03-20T11:54:21;98327.78;;;15.52;65.95
40920;BME280;26652;50.280;19.026;2023-03-20T11:56:34;98321.97;;;15.63;65.05
40920;BME280;26652;50.280;19.026;2023-03-20T11:59:03;98322.19;;;15.80;65.00
40920;BME280;26652;50.280;19.026;2023-03-20T12:01:16;98321.25;;;15.93;63.75
40920;BME280;26652;50.280;19.026;2023-03-20T12:04:18;98317.19;;;16.03;63.97
40920;BME280;26652;50.280;19.026;2023-03-20T12:06:21;98323.47;;;16.08;63.99
40920;BME280;26652;50.280;19.026;2023-03-20T12:08:30;98321.19;;;15.99;63.98
40920;BME280;26652;50.280;19.026;2023-03-20T12:10:42;98314.50;;;15.98;63.79
40920;BME280;26652;50.280;19.026;2023-03-20T12:12:55;98321.12;;;15.88;64.00
40920;BME280;26652;50.280;19.026;2023-03-20T12:15:30;98312.62;;;15.87;63.96
40920;BME280;26652;50.280;19.026;2023-03-20T12:20:35;98306.91;;;15.67;64.45
40920;BME280;26652;50.280;19.026;2023-03-20T12:25:25;98315.22;;;15.44;65.86
40920;BME280;26652;50.280;19.026;2023-03-20T12:27:45;98314.94;;;15.59;65.82
40920;BME280;26652;50.280;19.026;2023-03-20T12:32:55;98309.87;;;15.46;65.71
40920;BME280;26652;50.280;19.026;2023-03-20T12:35:37;98305.28;;;15.29;66.08
40920;BME280;26652;50.280;19.026;2023-03-20T12:37:41;98307.72;;;15.24;66.76
40920;BME280;26652;50.280;19.026;2023-03-20T12:40:01;98295.56;;;15.13;67.42
40920;BME280;26652;50.280;19.026;2023-03-20T12:42:21;98306.22;;;15.35;67.51
40920;BME280;26652;50.280;19.026;2023-03-20T12:44:55;98306.75;;;15.44;67.45